createdAt,value
2024-02-06T00:00:03.426Z,0
2024-02-06T00:01:09.585Z,0
2024-02-06T00:02:15.726Z,0
2024-02-06T00:03:21.864Z,0
2024-02-06T00:04:28.006Z,0
2024-02-06T00:05:34.157Z,0
2024-02-06T00:06:39.333Z,0
2024-02-06T00:07:45.458Z,0
2024-02-06T00:08:51.632Z,0
2024-02-06T00:09:57.745Z,0
2024-02-06T00:11:03.897Z,0
2024-02-06T00:12:10.030Z,0
2024-02-06T00:13:16.175Z,0
2024-02-06T00:14:22.325Z,0
2024-02-06T00:15:28.471Z,0
2024-02-06T00:16:34.619Z,0
2024-02-06T00:17:40.754Z,0
2024-02-06T00:18:46.891Z,0
2024-02-06T00:19:53.044Z,0
2024-02-06T00:20:58.200Z,0
2024-02-06T00:22:04.345Z,0
2024-02-06T00:23:10.487Z,0
2024-02-06T00:24:15.658Z,0
2024-02-06T00:25:21.819Z,0
2024-02-06T00:26:27.936Z,0
2024-02-06T00:27:34.079Z,0
2024-02-06T00:28:40.237Z,0
2024-02-06T00:29:46.365Z,0
2024-02-06T00:30:52.510Z,0
2024-02-06T00:31:58.654Z,0
2024-02-06T00:33:04.806Z,0
2024-02-06T00:34:10.945Z,0
2024-02-06T00:35:17.097Z,0
2024-02-06T00:36:23.242Z,0
2024-02-06T00:37:29.402Z,0
2024-02-06T00:38:34.549Z,0
2024-02-06T00:39:40.687Z,0
2024-02-06T00:40:46.834Z,0
2024-02-06T00:41:52.983Z,0
2024-02-06T00:42:59.113Z,0
2024-02-06T00:44:05.246Z,0
2024-02-06T00:45:11.400Z,0
2024-02-06T00:46:17.535Z,0
2024-02-06T00:47:23.678Z,0
2024-02-06T00:48:30.029Z,0
2024-02-06T00:49:35.970Z,0
2024-02-06T00:50:42.118Z,0
2024-02-06T00:51:48.242Z,0
2024-02-06T00:52:53.420Z,0
2024-02-06T00:53:59.565Z,0
2024-02-06T00:55:05.707Z,0
2024-02-06T00:56:11.857Z,0
2024-02-06T00:57:18.016Z,0
2024-02-06T00:58:24.258Z,0
2024-02-06T00:59:30.276Z,0
2024-02-06T01:00:36.424Z,0
2024-02-06T01:01:42.568Z,0
2024-02-06T01:02:48.735Z,0
2024-02-06T01:03:54.842Z,0
2024-02-06T01:05:00.993Z,0
2024-02-06T01:06:07.136Z,0
2024-02-06T01:07:12.315Z,0
2024-02-06T01:08:18.459Z,0
2024-02-06T01:09:24.587Z,0
2024-02-06T01:10:30.752Z,0
2024-02-06T01:11:36.868Z,0
2024-02-06T01:12:43.006Z,0
2024-02-06T01:13:49.164Z,0
2024-02-06T01:14:55.344Z,0
2024-02-06T01:16:01.448Z,0
2024-02-06T01:17:07.595Z,0
2024-02-06T01:18:13.727Z,0
2024-02-06T01:19:19.890Z,0
2024-02-06T01:20:26.017Z,0
2024-02-06T01:21:31.172Z,0
2024-02-06T01:22:37.333Z,0
2024-02-06T01:23:43.483Z,0
2024-02-06T01:24:49.605Z,0
2024-02-06T01:25:55.754Z,0
2024-02-06T01:27:01.894Z,0
2024-02-06T01:28:08.040Z,0
2024-02-06T01:29:14.183Z,0
2024-02-06T01:30:20.339Z,0
2024-02-06T01:31:26.497Z,0
2024-02-06T01:32:32.611Z,0
2024-02-06T01:33:38.776Z,0
2024-02-06T01:34:44.963Z,0
2024-02-06T01:35:50.069Z,0
2024-02-06T01:36:56.211Z,0
2024-02-06T01:38:02.361Z,0
2024-02-06T01:39:08.496Z,0
2024-02-06T01:40:14.646Z,0
2024-02-06T01:41:20.777Z,0
2024-02-06T01:42:26.919Z,0
2024-02-06T01:43:33.069Z,0
2024-02-06T01:44:39.223Z,0
2024-02-06T01:45:45.359Z,0
2024-02-06T01:46:51.498Z,0
2024-02-06T01:47:57.687Z,0
2024-02-06T01:49:03.782Z,0
2024-02-06T01:50:08.943Z,0
2024-02-06T01:51:15.086Z,0
2024-02-06T01:52:21.237Z,0
2024-02-06T01:53:27.400Z,0
2024-02-06T01:54:33.517Z,0
2024-02-06T01:55:39.651Z,0
2024-02-06T01:56:45.809Z,0
2024-02-06T01:57:51.948Z,0
2024-02-06T01:58:58.093Z,0
2024-02-06T02:00:04.237Z,0
2024-02-06T02:01:10.372Z,0
2024-02-06T02:02:16.529Z,0
2024-02-06T02:03:22.675Z,0
2024-02-06T02:04:27.837Z,0
2024-02-06T02:05:33.974Z,0
2024-02-06T02:06:40.097Z,0
2024-02-06T02:07:46.253Z,0
2024-02-06T02:08:52.397Z,0
2024-02-06T02:09:58.532Z,0
2024-02-06T02:11:04.689Z,0
2024-02-06T02:12:10.837Z,0
2024-02-06T02:13:16.963Z,0
2024-02-06T02:14:23.123Z,0
2024-02-06T02:15:29.261Z,0
2024-02-06T02:16:35.414Z,0
2024-02-06T02:17:41.549Z,0
2024-02-06T02:18:46.705Z,0
2024-02-06T02:19:52.952Z,0
2024-02-06T02:20:59.008Z,0
2024-02-06T02:22:05.146Z,0
2024-02-06T02:23:11.283Z,0
2024-02-06T02:24:17.432Z,0
2024-02-06T02:25:23.596Z,0
2024-02-06T02:26:29.702Z,0
2024-02-06T02:27:35.857Z,0
2024-02-06T02:28:42.009Z,0
2024-02-06T02:29:48.153Z,0
2024-02-06T02:30:54.287Z,0
2024-02-06T02:32:00.450Z,0
2024-02-06T02:33:05.588Z,0
2024-02-06T02:34:11.763Z,0
2024-02-06T02:35:17.874Z,0
2024-02-06T02:36:24.010Z,0
2024-02-06T02:37:30.189Z,0
2024-02-06T02:38:36.318Z,0
2024-02-06T02:39:42.455Z,0
2024-02-06T02:40:48.596Z,0
2024-02-06T02:41:54.736Z,0
2024-02-06T02:43:00.879Z,0
2024-02-06T02:44:07.033Z,0
2024-02-06T02:45:13.169Z,0
2024-02-06T02:46:19.392Z,0
2024-02-06T02:47:24.491Z,0
2024-02-06T02:48:30.625Z,0
2024-02-06T02:49:36.782Z,0
2024-02-06T02:50:42.908Z,0
2024-02-06T02:51:49.066Z,0
2024-02-06T02:52:55.203Z,0
2024-02-06T02:54:01.350Z,0
2024-02-06T02:55:07.497Z,0
2024-02-06T02:56:13.625Z,0
2024-02-06T02:57:19.765Z,0
2024-02-06T02:58:25.948Z,0
2024-02-06T02:59:32.056Z,0
2024-02-06T03:00:38.210Z,0
2024-02-06T03:01:43.380Z,0
2024-02-06T03:02:49.502Z,0
2024-02-06T03:03:55.653Z,0
2024-02-06T03:05:01.807Z,0
2024-02-06T03:06:07.954Z,0
2024-02-06T03:07:14.079Z,0
2024-02-06T03:08:20.210Z,0
2024-02-06T03:09:26.361Z,0
2024-02-06T03:10:32.516Z,0
2024-02-06T03:11:38.654Z,0
2024-02-06T03:12:44.789Z,0
2024-02-06T03:13:50.940Z,0
2024-02-06T03:14:57.081Z,0
2024-02-06T03:16:02.257Z,0
2024-02-06T03:17:08.379Z,0
2024-02-06T03:18:14.551Z,0
2024-02-06T03:19:20.678Z,0
2024-02-06T03:20:26.809Z,0
2024-02-06T03:21:32.946Z,0
2024-02-06T03:22:39.099Z,0
2024-02-06T03:23:45.253Z,0
2024-02-06T03:24:51.391Z,0
2024-02-06T03:25:57.527Z,0
2024-02-06T03:27:03.699Z,0
2024-02-06T03:28:09.815Z,0
2024-02-06T03:29:15.962Z,0
2024-02-06T03:30:21.129Z,0
2024-02-06T03:31:27.264Z,0
2024-02-06T03:32:33.416Z,0
2024-02-06T03:33:39.548Z,0
2024-02-06T03:34:45.691Z,0
2024-02-06T03:35:51.856Z,0
2024-02-06T03:36:57.991Z,0
2024-02-06T03:38:04.120Z,0
2024-02-06T03:39:10.272Z,0
2024-02-06T03:40:16.414Z,0
2024-02-06T03:41:22.551Z,0
2024-02-06T03:42:28.719Z,0
2024-02-06T03:43:34.864Z,0
2024-02-06T03:44:40.011Z,0
2024-02-06T03:45:46.168Z,0
2024-02-06T03:46:52.291Z,0
2024-02-06T03:47:58.437Z,0
2024-02-06T03:49:04.606Z,0
2024-02-06T03:50:10.714Z,0
2024-02-06T03:51:16.862Z,0
2024-02-06T03:52:23.017Z,0
2024-02-06T03:53:29.150Z,0
2024-02-06T03:54:35.296Z,0
2024-02-06T03:55:41.458Z,0
2024-02-06T03:56:47.582Z,0
2024-02-06T03:57:53.727Z,0
2024-02-06T03:58:58.884Z,0
2024-02-06T04:00:05.059Z,0
2024-02-06T04:01:11.174Z,0
2024-02-06T04:02:17.327Z,0
2024-02-06T04:03:23.457Z,0
2024-02-06T04:04:29.600Z,0
2024-02-06T04:05:34.778Z,0
2024-02-06T04:06:40.924Z,0
2024-02-06T04:07:47.059Z,0
2024-02-06T04:08:53.375Z,0
2024-02-06T04:09:59.348Z,0
2024-02-06T04:11:05.490Z,0
2024-02-06T04:12:11.637Z,0
2024-02-06T04:13:17.779Z,0
2024-02-06T04:14:23.918Z,0
2024-02-06T04:15:30.065Z,0
2024-02-06T04:16:36.212Z,0
2024-02-06T04:17:42.340Z,0
2024-02-06T04:18:48.502Z,0
2024-02-06T04:19:54.640Z,0
2024-02-06T04:20:59.797Z,0
2024-02-06T04:22:05.947Z,0
2024-02-06T04:23:12.084Z,0
2024-02-06T04:24:18.238Z,0
2024-02-06T04:25:24.388Z,0
2024-02-06T04:26:30.525Z,0
2024-02-06T04:27:36.663Z,0
2024-02-06T04:28:42.806Z,0
2024-02-06T04:29:48.949Z,0
2024-02-06T04:30:55.101Z,0
2024-02-06T04:32:01.234Z,0
2024-02-06T04:33:07.399Z,0
2024-02-06T04:34:13.517Z,0
2024-02-06T04:35:18.680Z,0
2024-02-06T04:36:24.831Z,0
2024-02-06T04:37:30.966Z,0
2024-02-06T04:38:37.128Z,0
2024-02-06T04:39:43.248Z,0
2024-02-06T04:40:49.401Z,0
2024-02-06T04:41:55.547Z,0
2024-02-06T04:43:01.704Z,0
2024-02-06T04:44:07.834Z,0
2024-02-06T04:45:13.973Z,0
2024-02-06T04:46:20.118Z,0
2024-02-06T04:47:26.257Z,0
2024-02-06T04:48:32.410Z,0
2024-02-06T04:49:37.589Z,0
2024-02-06T04:50:43.693Z,0
2024-02-06T04:51:49.847Z,0
2024-02-06T04:52:55.995Z,0
2024-02-06T04:54:02.139Z,0
2024-02-06T04:55:08.274Z,0
2024-02-06T04:56:14.425Z,0
2024-02-06T04:57:20.561Z,0
2024-02-06T04:58:26.834Z,0
2024-02-06T04:59:32.855Z,0
2024-02-06T05:00:38.998Z,0
2024-02-06T05:01:45.141Z,0
2024-02-06T05:02:51.276Z,0
2024-02-06T05:03:56.447Z,0
2024-02-06T05:05:02.597Z,0
2024-02-06T05:06:08.768Z,0
2024-02-06T05:07:14.876Z,0
2024-02-06T05:08:21.104Z,0
2024-02-06T05:09:27.166Z,0
2024-02-06T05:10:33.337Z,0
2024-02-06T05:11:39.462Z,0
2024-02-06T05:12:45.603Z,0
2024-02-06T05:13:51.737Z,0
2024-02-06T05:14:57.896Z,0
2024-02-06T05:16:04.029Z,0
2024-02-06T05:17:10.176Z,0
2024-02-06T05:18:15.335Z,0
2024-02-06T05:19:21.499Z,0
2024-02-06T05:20:27.621Z,0
2024-02-06T05:21:33.764Z,0
2024-02-06T05:22:39.924Z,0
2024-02-06T05:23:46.067Z,0
2024-02-06T05:24:52.190Z,0
2024-02-06T05:25:58.333Z,0
2024-02-06T05:27:04.469Z,0
2024-02-06T05:28:10.647Z,0
2024-02-06T05:29:16.763Z,0
2024-02-06T05:30:22.910Z,0
2024-02-06T05:31:29.054Z,0
2024-02-06T05:32:34.222Z,0
2024-02-06T05:33:40.358Z,0
2024-02-06T05:34:46.491Z,0
2024-02-06T05:35:52.633Z,0
2024-02-06T05:36:58.789Z,0
2024-02-06T05:38:04.936Z,0
2024-02-06T05:39:11.095Z,0
2024-02-06T05:40:17.257Z,0
2024-02-06T05:41:23.358Z,0
2024-02-06T05:42:29.506Z,0
2024-02-06T05:43:35.650Z,0
2024-02-06T05:44:41.789Z,0
2024-02-06T05:45:47.930Z,0
2024-02-06T05:46:53.092Z,0
2024-02-06T05:47:59.374Z,0
2024-02-06T05:49:05.529Z,0
2024-02-06T05:50:11.675Z,0
2024-02-06T05:51:17.820Z,0
2024-02-06T05:52:23.940Z,0
2024-02-06T05:53:30.086Z,0
2024-02-06T05:54:36.225Z,0
2024-02-06T05:55:42.392Z,0
2024-02-06T05:56:48.503Z,0
2024-02-06T05:57:54.656Z,0
2024-02-06T05:59:00.795Z,0
2024-02-06T06:00:06.960Z,0
2024-02-06T06:01:12.101Z,0
2024-02-06T06:02:18.248Z,0
2024-02-06T06:03:24.387Z,0
2024-02-06T06:04:30.531Z,0
2024-02-06T06:05:36.679Z,0
2024-02-06T06:06:42.840Z,0
2024-02-06T06:07:48.962Z,0
2024-02-06T06:08:55.105Z,0
2024-02-06T06:10:01.246Z,0
2024-02-06T06:11:07.449Z,0
2024-02-06T06:12:13.555Z,0
2024-02-06T06:13:19.681Z,0
2024-02-06T06:14:25.832Z,0
2024-02-06T06:15:30.989Z,0
2024-02-06T06:16:37.133Z,0
2024-02-06T06:17:43.280Z,0
2024-02-06T06:18:49.438Z,0
2024-02-06T06:19:55.577Z,0
2024-02-06T06:21:01.719Z,0
2024-02-06T06:22:07.851Z,0
2024-02-06T06:23:14.005Z,0
2024-02-06T06:24:20.139Z,0
2024-02-06T06:25:26.277Z,0
2024-02-06T06:26:32.419Z,0
2024-02-06T06:27:38.560Z,0
2024-02-06T06:28:44.729Z,0
2024-02-06T06:29:49.870Z,0
2024-02-06T06:30:56.032Z,0
2024-02-06T06:32:02.164Z,0
2024-02-06T06:33:08.308Z,0
2024-02-06T06:34:14.459Z,0
2024-02-06T06:35:20.600Z,0
2024-02-06T06:36:26.736Z,0
2024-02-06T06:37:32.875Z,0
2024-02-06T06:38:39.016Z,0
2024-02-06T06:39:45.167Z,0
2024-02-06T06:40:51.305Z,0
2024-02-06T06:41:57.448Z,0
2024-02-06T06:43:03.596Z,0
2024-02-06T06:44:08.752Z,0
2024-02-06T06:45:14.917Z,0
2024-02-06T06:46:21.040Z,0
2024-02-06T06:47:27.191Z,0
2024-02-06T06:48:32.345Z,0
2024-02-06T06:49:37.511Z,0
2024-02-06T06:50:43.655Z,0
2024-02-06T06:51:49.802Z,5
2024-02-06T06:52:55.956Z,5
2024-02-06T06:54:02.086Z,5
2024-02-06T06:55:08.238Z,5
2024-02-06T06:56:14.367Z,5
2024-02-06T06:57:20.521Z,5
2024-02-06T06:58:26.669Z,5
2024-02-06T06:59:32.805Z,5
2024-02-06T07:00:38.940Z,5
2024-02-06T07:01:45.118Z,5
2024-02-06T07:02:51.255Z,11
2024-02-06T07:03:57.396Z,11
2024-02-06T07:05:02.538Z,11
2024-02-06T07:06:08.703Z,11
2024-02-06T07:07:14.820Z,11
2024-02-06T07:08:21.105Z,16
2024-02-06T07:09:27.151Z,16
2024-02-06T07:10:33.289Z,16
2024-02-06T07:11:39.413Z,16
2024-02-06T07:12:45.571Z,16
2024-02-06T07:13:51.714Z,16
2024-02-06T07:14:57.834Z,16
2024-02-06T07:16:03.975Z,22
2024-02-06T07:17:10.125Z,33
2024-02-06T07:18:16.288Z,33
2024-02-06T07:19:21.442Z,28
2024-02-06T07:20:27.570Z,28
2024-02-06T07:21:33.710Z,33
2024-02-06T07:22:39.847Z,33
2024-02-06T07:23:46.000Z,39
2024-02-06T07:24:52.136Z,39
2024-02-06T07:25:58.294Z,39
2024-02-06T07:27:04.438Z,50
2024-02-06T07:28:10.565Z,50
2024-02-06T07:29:16.714Z,56
2024-02-06T07:30:22.893Z,50
2024-02-06T07:31:29.018Z,61
2024-02-06T07:32:35.159Z,50
2024-02-06T07:33:40.320Z,50
2024-02-06T07:34:46.467Z,56
2024-02-06T07:35:52.594Z,61
2024-02-06T07:36:58.738Z,56
2024-02-06T07:38:04.889Z,56
2024-02-06T07:39:11.030Z,61
2024-02-06T07:40:17.198Z,67
2024-02-06T07:41:23.309Z,67
2024-02-06T07:42:29.458Z,73
2024-02-06T07:43:35.605Z,84
2024-02-06T07:44:41.772Z,90
2024-02-06T07:45:47.895Z,84
2024-02-06T07:46:53.063Z,78
2024-02-06T07:47:59.198Z,90
2024-02-06T07:49:05.357Z,78
2024-02-06T07:50:11.485Z,73
2024-02-06T07:51:17.651Z,90
2024-02-06T07:52:23.904Z,101
2024-02-06T07:53:29.916Z,101
2024-02-06T07:54:36.071Z,106
2024-02-06T07:55:42.306Z,118
2024-02-06T07:56:48.342Z,112
2024-02-06T07:57:54.560Z,106
2024-02-06T07:59:00.634Z,123
2024-02-06T08:00:06.790Z,129
2024-02-06T08:01:11.942Z,123
2024-02-06T08:02:18.109Z,129
2024-02-06T08:03:24.223Z,129
2024-02-06T08:04:30.365Z,140
2024-02-06T08:05:36.530Z,163
2024-02-06T08:06:42.652Z,163
2024-02-06T08:07:48.810Z,185
2024-02-06T08:08:54.963Z,146
2024-02-06T08:10:01.351Z,163
2024-02-06T08:11:07.315Z,180
2024-02-06T08:12:13.440Z,208
2024-02-06T08:13:19.529Z,230
2024-02-06T08:14:25.858Z,258
2024-02-06T08:15:30.836Z,393
2024-02-06T08:16:37.126Z,708
2024-02-06T08:17:43.382Z,658
2024-02-06T08:18:49.354Z,675
2024-02-06T08:19:55.685Z,714
2024-02-06T08:21:01.630Z,607
2024-02-06T08:22:07.814Z,613
2024-02-06T08:23:13.962Z,540
2024-02-06T08:24:20.093Z,596
2024-02-06T08:25:26.176Z,247
2024-02-06T08:26:32.416Z,348
2024-02-06T08:27:38.703Z,388
2024-02-06T08:28:44.837Z,309
2024-02-06T08:29:49.761Z,309
2024-02-06T08:30:55.839Z,315
2024-02-06T08:32:01.988Z,315
2024-02-06T08:33:08.145Z,331
2024-02-06T08:34:14.270Z,360
2024-02-06T08:35:20.417Z,354
2024-02-06T08:36:26.553Z,427
2024-02-06T08:37:32.699Z,343
2024-02-06T08:38:38.870Z,365
2024-02-06T08:39:44.990Z,585
2024-02-06T08:40:51.152Z,579
2024-02-06T08:41:57.294Z,1164
2024-02-06T08:43:03.422Z,489
2024-02-06T08:44:08.571Z,478
2024-02-06T08:45:14.738Z,433
2024-02-06T08:46:20.865Z,444
2024-02-06T08:47:27.014Z,1378
2024-02-06T08:48:33.154Z,2311
2024-02-06T08:49:39.311Z,1901
2024-02-06T08:50:45.440Z,1125
2024-02-06T08:51:51.589Z,742
2024-02-06T08:52:57.729Z,489
2024-02-06T08:54:03.886Z,421
2024-02-06T08:55:10.022Z,652
2024-02-06T08:56:16.151Z,613
2024-02-06T08:57:22.334Z,331
2024-02-06T08:58:27.481Z,376
2024-02-06T08:59:33.608Z,388
2024-02-06T09:00:39.765Z,348
2024-02-06T09:01:45.886Z,961
2024-02-06T09:02:52.053Z,753
2024-02-06T09:03:58.170Z,753
2024-02-06T09:05:04.336Z,405
2024-02-06T09:06:10.462Z,511
2024-02-06T09:07:16.635Z,343
2024-02-06T09:08:22.753Z,455
2024-02-06T09:09:28.889Z,416
2024-02-06T09:10:35.041Z,354
2024-02-06T09:11:41.179Z,585
2024-02-06T09:12:46.352Z,686
2024-02-06T09:13:52.505Z,1096
2024-02-06T09:14:58.632Z,990
2024-02-06T09:16:04.776Z,1260
2024-02-06T09:17:10.912Z,618
2024-02-06T09:18:17.053Z,433
2024-02-06T09:19:23.203Z,489
2024-02-06T09:20:29.330Z,545
2024-02-06T09:21:35.485Z,731
2024-02-06T09:22:41.744Z,1366
2024-02-06T09:23:47.882Z,1125
2024-02-06T09:24:54.034Z,1063
2024-02-06T09:26:00.177Z,1035
2024-02-06T09:27:05.320Z,630
2024-02-06T09:28:11.488Z,495
2024-02-06T09:29:17.626Z,416
2024-02-06T09:30:23.776Z,331
2024-02-06T09:31:29.903Z,309
2024-02-06T09:32:36.051Z,309
2024-02-06T09:33:42.204Z,281
2024-02-06T09:34:48.329Z,286
2024-02-06T09:35:54.515Z,309
2024-02-06T09:37:00.622Z,286
2024-02-06T09:38:06.760Z,281
2024-02-06T09:39:12.906Z,410
2024-02-06T09:40:19.063Z,714
2024-02-06T09:41:24.233Z,804
2024-02-06T09:42:30.374Z,1096
2024-02-06T09:43:36.496Z,371
2024-02-06T09:44:42.648Z,281
2024-02-06T09:45:48.795Z,298
2024-02-06T09:46:54.955Z,337
2024-02-06T09:48:01.081Z,320
2024-02-06T09:49:07.229Z,298
2024-02-06T09:50:13.362Z,303
2024-02-06T09:51:19.508Z,326
2024-02-06T09:52:25.637Z,309
2024-02-06T09:53:31.794Z,315
2024-02-06T09:54:37.938Z,326
2024-02-06T09:55:43.092Z,360
2024-02-06T09:56:49.239Z,331
2024-02-06T09:57:55.402Z,326
2024-02-06T09:59:01.522Z,348
2024-02-06T10:00:07.663Z,354
2024-02-06T10:01:13.814Z,405
2024-02-06T10:02:19.948Z,517
2024-02-06T10:03:26.115Z,399
2024-02-06T10:04:32.239Z,838
2024-02-06T10:05:38.378Z,1698
2024-02-06T10:06:44.538Z,1856
2024-02-06T10:07:50.661Z,1861
2024-02-06T10:08:56.806Z,1288
2024-02-06T10:10:02.000Z,776
2024-02-06T10:11:08.110Z,1552
2024-02-06T10:12:14.254Z,1226
2024-02-06T10:13:20.391Z,1001
2024-02-06T10:14:26.547Z,916
2024-02-06T10:15:32.700Z,1035
2024-02-06T10:16:38.839Z,1518
2024-02-06T10:17:44.994Z,877
2024-02-06T10:18:51.117Z,1170
2024-02-06T10:19:57.263Z,1231
2024-02-06T10:21:03.417Z,843
2024-02-06T10:22:09.553Z,725
2024-02-06T10:23:15.681Z,1113
2024-02-06T10:24:20.851Z,1800
2024-02-06T10:25:27.009Z,1614
2024-02-06T10:26:33.137Z,2823
2024-02-06T10:27:39.283Z,5051
2024-02-06T10:28:45.419Z,5253
2024-02-06T10:29:51.562Z,4140
2024-02-06T10:30:57.709Z,4455
2024-02-06T10:32:03.848Z,4505
2024-02-06T10:33:10.000Z,4280
2024-02-06T10:34:16.130Z,4578
2024-02-06T10:35:22.284Z,4899
2024-02-06T10:36:28.436Z,4905
2024-02-06T10:37:34.561Z,5079
2024-02-06T10:38:39.727Z,4910
2024-02-06T10:39:45.877Z,4770
2024-02-06T10:40:52.009Z,4595
2024-02-06T10:41:58.152Z,3791
2024-02-06T10:43:04.296Z,4550
2024-02-06T10:44:10.441Z,5214
2024-02-06T10:45:16.601Z,5461
2024-02-06T10:46:22.742Z,5805
2024-02-06T10:47:28.874Z,5191
2024-02-06T10:48:35.015Z,4646
2024-02-06T10:49:41.160Z,4466
2024-02-06T10:50:47.299Z,4725
2024-02-06T10:51:53.461Z,4713
2024-02-06T10:52:58.622Z,4314
2024-02-06T10:54:04.748Z,4258
2024-02-06T10:55:10.890Z,4522
2024-02-06T10:56:17.053Z,4443
2024-02-06T10:57:23.177Z,4713
2024-02-06T10:58:29.323Z,4500
2024-02-06T10:59:35.451Z,4066
2024-02-06T11:00:41.610Z,4691
2024-02-06T11:01:47.756Z,4314
2024-02-06T11:02:53.885Z,5259
2024-02-06T11:04:00.049Z,5101
2024-02-06T11:05:06.183Z,4944
2024-02-06T11:06:12.320Z,4702
2024-02-06T11:07:18.479Z,4938
2024-02-06T11:08:23.625Z,4708
2024-02-06T11:09:29.782Z,4702
2024-02-06T11:10:35.918Z,4691
2024-02-06T11:11:42.055Z,3476
2024-02-06T11:12:48.211Z,3690
2024-02-06T11:13:54.339Z,4443
2024-02-06T11:15:00.498Z,4567
2024-02-06T11:16:06.625Z,4758
2024-02-06T11:17:12.770Z,5085
2024-02-06T11:18:18.905Z,4978
2024-02-06T11:19:25.064Z,5073
2024-02-06T11:20:31.200Z,5146
2024-02-06T11:21:37.335Z,5028
2024-02-06T11:22:42.495Z,4786
2024-02-06T11:23:48.646Z,4815
2024-02-06T11:24:54.785Z,5107
2024-02-06T11:26:00.959Z,5287
2024-02-06T11:27:07.090Z,1760
2024-02-06T11:28:12.270Z,4803
2024-02-06T11:29:18.383Z,4488
2024-02-06T11:30:24.532Z,4916
2024-02-06T11:31:30.670Z,4567
2024-02-06T11:32:36.821Z,4561
2024-02-06T11:33:42.954Z,4443
2024-02-06T11:34:49.091Z,4556
2024-02-06T11:35:55.254Z,4905
2024-02-06T11:37:01.409Z,5248
2024-02-06T11:38:07.548Z,5253
2024-02-06T11:39:13.679Z,4989
2024-02-06T11:40:19.843Z,4983
2024-02-06T11:41:25.962Z,4753
2024-02-06T11:42:31.133Z,4843
2024-02-06T11:43:37.255Z,4426
2024-02-06T11:44:43.413Z,4595
2024-02-06T11:45:49.554Z,4246
2024-02-06T11:46:55.695Z,4500
2024-02-06T11:48:01.858Z,4893
2024-02-06T11:49:07.969Z,5124
2024-02-06T11:50:14.134Z,4708
2024-02-06T11:51:20.258Z,4770
2024-02-06T11:52:26.417Z,5056
2024-02-06T11:53:32.561Z,4950
2024-02-06T11:54:38.695Z,5394
2024-02-06T11:55:44.836Z,5388
2024-02-06T11:56:50.011Z,5203
2024-02-06T11:57:56.168Z,5208
2024-02-06T11:59:02.297Z,5101
2024-02-06T12:00:08.440Z,5096
2024-02-06T12:01:14.578Z,5377
2024-02-06T12:02:20.733Z,5523
2024-02-06T12:03:26.859Z,5259
2024-02-06T12:04:33.012Z,5231
2024-02-06T12:05:39.149Z,5338
2024-02-06T12:06:45.294Z,5281
2024-02-06T12:07:51.440Z,5298
2024-02-06T12:08:57.607Z,5220
2024-02-06T12:10:03.719Z,5073
2024-02-06T12:11:08.883Z,5214
2024-02-06T12:12:15.029Z,5135
2024-02-06T12:13:21.180Z,4606
2024-02-06T12:14:27.352Z,4668
2024-02-06T12:15:33.477Z,5338
2024-02-06T12:16:39.617Z,5450
2024-02-06T12:17:45.750Z,5017
2024-02-06T12:18:51.891Z,5006
2024-02-06T12:19:58.033Z,4168
2024-02-06T12:21:04.184Z,1507
2024-02-06T12:22:10.318Z,624
2024-02-06T12:23:16.473Z,562
2024-02-06T12:24:22.604Z,534
2024-02-06T12:25:27.767Z,517
2024-02-06T12:26:33.908Z,500
2024-02-06T12:27:40.060Z,489
2024-02-06T12:28:46.194Z,466
2024-02-06T12:29:52.356Z,472
2024-02-06T12:30:58.505Z,461
2024-02-06T12:32:04.638Z,511
2024-02-06T12:33:10.767Z,483
2024-02-06T12:34:16.938Z,461
2024-02-06T12:35:23.064Z,461
2024-02-06T12:36:29.192Z,466
2024-02-06T12:37:35.353Z,461
2024-02-06T12:38:41.483Z,444
2024-02-06T12:39:46.646Z,433
2024-02-06T12:40:52.788Z,433
2024-02-06T12:41:58.928Z,450
2024-02-06T12:43:05.072Z,450
2024-02-06T12:44:11.205Z,427
2024-02-06T12:45:17.359Z,416
2024-02-06T12:46:23.510Z,410
2024-02-06T12:47:29.646Z,410
2024-02-06T12:48:35.803Z,410
2024-02-06T12:49:41.940Z,421
2024-02-06T12:50:48.082Z,421
2024-02-06T12:51:54.199Z,421
2024-02-06T12:53:00.352Z,416
2024-02-06T12:54:05.527Z,416
2024-02-06T12:55:11.656Z,427
2024-02-06T12:56:17.798Z,433
2024-02-06T12:57:23.963Z,405
2024-02-06T12:58:30.090Z,371
2024-02-06T12:59:36.226Z,365
2024-02-06T13:00:42.397Z,365
2024-02-06T13:01:48.517Z,365
2024-02-06T13:02:54.656Z,354
2024-02-06T13:04:00.790Z,348
2024-02-06T13:05:06.971Z,365
2024-02-06T13:06:13.087Z,365
2024-02-06T13:07:19.231Z,343
2024-02-06T13:08:24.384Z,337
2024-02-06T13:09:30.542Z,337
2024-02-06T13:10:36.669Z,331
2024-02-06T13:11:42.814Z,281
2024-02-06T13:12:48.956Z,331
2024-02-06T13:13:55.106Z,315
2024-02-06T13:15:01.254Z,303
2024-02-06T13:17:13.539Z,309
2024-02-06T13:18:19.672Z,315
2024-02-06T13:19:25.828Z,309
2024-02-06T13:20:31.969Z,303
2024-02-06T13:21:38.132Z,303
2024-02-06T13:22:43.263Z,309
2024-02-06T13:23:49.407Z,309
2024-02-06T13:24:55.552Z,303
2024-02-06T13:26:01.703Z,286
2024-02-06T13:27:07.841Z,281
2024-02-06T13:28:13.983Z,275
2024-02-06T13:29:20.128Z,264
2024-02-06T13:30:26.264Z,270
2024-02-06T13:31:32.410Z,270
2024-02-06T13:32:38.559Z,258
2024-02-06T13:33:44.698Z,270
2024-02-06T13:34:50.844Z,270
2024-02-06T13:35:56.978Z,270
2024-02-06T13:37:02.139Z,270
2024-02-06T13:38:08.329Z,264
2024-02-06T13:39:14.459Z,258
2024-02-06T13:40:20.567Z,258
2024-02-06T13:41:26.703Z,253
2024-02-06T13:42:32.873Z,253
2024-02-06T13:43:39.007Z,253
2024-02-06T13:44:45.142Z,247
2024-02-06T13:45:51.281Z,247
2024-02-06T13:46:57.432Z,258
2024-02-06T13:48:03.572Z,247
2024-02-06T13:49:09.722Z,241
2024-02-06T13:50:15.856Z,241
2024-02-06T13:51:21.020Z,236
2024-02-06T13:52:27.185Z,230
2024-02-06T13:53:33.309Z,225
2024-02-06T13:54:39.472Z,225
2024-02-06T13:55:45.579Z,219
2024-02-06T13:56:51.731Z,219
2024-02-06T13:57:57.895Z,219
2024-02-06T13:59:04.020Z,219
2024-02-06T14:00:10.148Z,219
2024-02-06T14:01:16.323Z,219
2024-02-06T14:02:22.444Z,225
2024-02-06T14:03:28.624Z,219
2024-02-06T14:04:34.736Z,213
2024-02-06T14:05:39.891Z,213
2024-02-06T14:06:46.051Z,208
2024-02-06T14:07:52.182Z,208
2024-02-06T14:08:58.348Z,202
2024-02-06T14:10:04.468Z,202
2024-02-06T14:11:10.636Z,202
2024-02-06T14:12:16.754Z,196
2024-02-06T14:13:22.894Z,191
2024-02-06T14:14:29.028Z,191
2024-02-06T14:15:35.180Z,191
2024-02-06T14:16:41.334Z,185
2024-02-06T14:17:47.467Z,185
2024-02-06T14:18:53.618Z,180
2024-02-06T14:19:58.774Z,180
2024-02-06T14:21:04.931Z,174
2024-02-06T14:22:11.059Z,174
2024-02-06T14:23:17.205Z,174
2024-02-06T14:24:23.341Z,168
2024-02-06T14:25:29.491Z,163
2024-02-06T14:26:35.636Z,163
2024-02-06T14:27:41.796Z,163
2024-02-06T14:28:47.951Z,163
2024-02-06T14:29:54.054Z,157
2024-02-06T14:31:00.206Z,163
2024-02-06T14:32:06.355Z,157
2024-02-06T14:33:12.498Z,157
2024-02-06T14:34:17.647Z,157
2024-02-06T14:35:23.808Z,157
2024-02-06T14:36:29.946Z,157
2024-02-06T14:37:36.101Z,157
2024-02-06T14:38:42.229Z,129
2024-02-06T14:39:48.362Z,129
2024-02-06T14:40:54.518Z,129
2024-02-06T14:42:00.648Z,151
2024-02-06T14:43:06.798Z,151
2024-02-06T14:44:12.956Z,146
2024-02-06T14:45:19.080Z,146
2024-02-06T14:46:25.226Z,135
2024-02-06T14:47:31.369Z,140
2024-02-06T14:48:36.525Z,123
2024-02-06T14:49:42.674Z,112
2024-02-06T14:50:48.813Z,112
2024-02-06T14:51:54.959Z,118
2024-02-06T14:53:01.103Z,129
2024-02-06T14:54:07.258Z,118
2024-02-06T14:55:13.392Z,129
2024-02-06T14:56:19.523Z,123
2024-02-06T14:57:25.680Z,129
2024-02-06T14:58:31.814Z,123
2024-02-06T14:59:37.979Z,123
2024-02-06T15:00:44.127Z,118
2024-02-06T15:01:50.261Z,101
2024-02-06T15:02:55.436Z,112
2024-02-06T15:04:01.548Z,112
2024-02-06T15:05:07.699Z,112
2024-02-06T15:06:13.825Z,112
2024-02-06T15:07:19.984Z,112
2024-02-06T15:08:26.113Z,112
2024-02-06T15:09:31.291Z,95
2024-02-06T15:10:37.450Z,112
2024-02-06T15:11:43.585Z,106
2024-02-06T15:12:49.714Z,106
2024-02-06T15:13:55.891Z,106
2024-02-06T15:15:02.014Z,101
2024-02-06T15:16:08.152Z,95
2024-02-06T15:17:14.297Z,95
2024-02-06T15:18:20.480Z,95
2024-02-06T15:19:26.574Z,95
2024-02-06T15:20:32.722Z,90
2024-02-06T15:21:38.857Z,84
2024-02-06T15:22:45.006Z,84
2024-02-06T15:23:50.159Z,101
2024-02-06T15:24:56.350Z,90
2024-02-06T15:26:02.454Z,84
2024-02-06T15:27:08.593Z,78
2024-02-06T15:28:14.740Z,78
2024-02-06T15:29:20.876Z,78
2024-02-06T15:30:27.023Z,84
2024-02-06T15:31:33.161Z,90
2024-02-06T15:32:39.306Z,84
2024-02-06T15:33:45.476Z,84
2024-02-06T15:34:51.595Z,84
2024-02-06T15:35:57.750Z,84
2024-02-06T15:37:03.885Z,78